Terminal Aerodrome Forecast
Issued by NWS Pocatello, ID

Home | Current Version | Previous Version | Text Only | Print | Product List | Glossary On
Versions: 1 2 3 4 5 6 7 8 9 10 11 12 13 14
000
FTUS45 KPIH 272300
TAFPIH
TAF
KPIH 272324Z 2800/2824 04006KT P6SM VCSH SCT030 BKN090
     FM280300 05009KT P6SM SCT030 BKN040
     FM281500 04011KT P6SM FEW030 SCT080
     FM282000 04014KT P6SM SCT050=

USA.gov is the U.S. government's official web portal to all federal, state and local government web resources and services.